sensor_id;sensor_type;location;lat;lon;timestamp;pressure;altitude;pressure_sealevel;temperature
64960;BMP180;51487;52.266;10.542;2022-09-09T00:00:48;99977.00;;;13.60
64960;BMP180;51487;52.266;10.542;2022-09-09T00:03:25;99982.00;;;13.50
64960;BMP180;51487;52.266;10.542;2022-09-09T00:09:16;99987.00;;;13.50
64960;BMP180;51487;52.266;10.542;2022-09-09T00:11:48;99981.00;;;13.50
64960;BMP180;51487;52.266;10.542;2022-09-09T00:17:35;99975.00;;;13.50
64960;BMP180;51487;52.266;10.542;2022-09-09T00:20:12;99976.00;;;13.60
64960;BMP180;51487;52.266;10.542;2022-09-09T00:22:48;99982.00;;;13.60
64960;BMP180;51487;52.266;10.542;2022-09-09T00:25:31;99976.00;;;13.70
64960;BMP180;51487;52.266;10.542;2022-09-09T00:28:02;99973.00;;;13.70
64960;BMP180;51487;52.266;10.542;2022-09-09T00:30:40;99981.00;;;13.80
64960;BMP180;51487;52.266;10.542;2022-09-09T00:33:12;99978.00;;;13.80
64960;BMP180;51487;52.266;10.542;2022-09-09T00:35:57;99975.00;;;13.80
64960;BMP180;51487;52.266;10.542;2022-09-09T00:38:27;99980.00;;;13.80
64960;BMP180;51487;52.266;10.542;2022-09-09T00:43:38;99977.00;;;13.80
64960;BMP180;51487;52.266;10.542;2022-09-09T00:48:54;99969.00;;;13.80
64960;BMP180;51487;52.266;10.542;2022-09-09T00:59:51;99967.00;;;13.90
64960;BMP180;51487;52.266;10.542;2022-09-09T01:02:29;99970.00;;;13.90
64960;BMP180;51487;52.266;10.542;2022-09-09T01:10:54;99982.00;;;14.00
64960;BMP180;51487;52.266;10.542;2022-09-09T01:13:31;99977.00;;;14.10
64960;BMP180;51487;52.266;10.542;2022-09-09T01:16:00;99971.00;;;14.10
64960;BMP180;51487;52.266;10.542;2022-09-09T01:18:37;99983.00;;;14.10
64960;BMP180;51487;52.266;10.542;2022-09-09T01:21:42;99986.00;;;14.00
64960;BMP180;51487;52.266;10.542;2022-09-09T01:27:06;99984.00;;;13.80
64960;BMP180;51487;52.266;10.542;2022-09-09T01:29:33;99989.00;;;13.80
64960;BMP180;51487;52.266;10.542;2022-09-09T01:32:01;99979.00;;;13.70
64960;BMP180;51487;52.266;10.542;2022-09-09T01:34:47;99989.00;;;13.80
64960;BMP180;51487;52.266;10.542;2022-09-09T01:37:13;99982.00;;;13.70
64960;BMP180;51487;52.266;10.542;2022-09-09T01:39:40;99977.00;;;13.70
64960;BMP180;51487;52.266;10.542;2022-09-09T01:42:10;99973.00;;;13.60
64960;BMP180;51487;52.266;10.542;2022-09-09T01:44:38;99970.00;;;13.70
64960;BMP180;51487;52.266;10.542;2022-09-09T01:47:05;99967.00;;;13.60
64960;BMP180;51487;52.266;10.542;2022-09-09T01:49:31;99974.00;;;13.50
64960;BMP180;51487;52.266;10.542;2022-09-09T01:51:58;99970.00;;;13.50
64960;BMP180;51487;52.266;10.542;2022-09-09T01:54:27;99964.00;;;13.50
64960;BMP180;51487;52.266;10.542;2022-09-09T01:57:15;99969.00;;;13.50
64960;BMP180;51487;52.266;10.542;2022-09-09T02:00:05;99965.00;;;13.50
64960;BMP180;51487;52.266;10.542;2022-09-09T02:05:30;99973.00;;;13.40
64960;BMP180;51487;52.266;10.542;2022-09-09T02:08:13;99967.00;;;13.40
64960;BMP180;51487;52.266;10.542;2022-09-09T02:13:39;99968.00;;;13.40
64960;BMP180;51487;52.266;10.542;2022-09-09T02:16:14;99975.00;;;13.40
64960;BMP180;51487;52.266;10.542;2022-09-09T02:19:06;99973.00;;;13.40
64960;BMP180;51487;52.266;10.542;2022-09-09T02:21:39;99967.00;;;13.40
64960;BMP180;51487;52.266;10.542;2022-09-09T02:24:10;99975.00;;;13.30
64960;BMP180;51487;52.266;10.542;2022-09-09T02:26:41;99978.00;;;13.30
64960;BMP180;51487;52.266;10.542;2022-09-09T02:29:28;99968.00;;;13.30
64960;BMP180;51487;52.266;10.542;2022-09-09T02:32:03;99975.00;;;13.30
64960;BMP180;51487;52.266;10.542;2022-09-09T02:34:34;99968.00;;;13.30
64960;BMP180;51487;52.266;10.542;2022-09-09T02:37:03;99962.00;;;13.30
64960;BMP180;51487;52.266;10.542;2022-09-09T02:39:31;99964.00;;;13.30
64960;BMP180;51487;52.266;10.542;2022-09-09T02:41:57;99961.00;;;13.30
64960;BMP180;51487;52.266;10.542;2022-09-09T02:44:22;99960.00;;;13.30
64960;BMP180;51487;52.266;10.542;2022-09-09T02:49:40;99962.00;;;13.30
64960;BMP180;51487;52.266;10.542;2022-09-09T02:52:14;99961.00;;;13.30
64960;BMP180;51487;52.266;10.542;2022-09-09T02:54:43;99960.00;;;13.30
64960;BMP180;51487;52.266;10.542;2022-09-09T02:57:17;99964.00;;;13.30
64960;BMP180;51487;52.266;10.542;2022-09-09T02:59:48;99959.00;;;13.30
64960;BMP180;51487;52.266;10.542;2022-09-09T03:02:15;99957.00;;;13.30
64960;BMP180;51487;52.266;10.542;2022-09-09T03:04:41;99967.00;;;13.30
64960;BMP180;51487;52.266;10.542;2022-09-09T03:07:10;99961.00;;;13.30
64960;BMP180;51487;52.266;10.542;2022-09-09T03:09:37;99963.00;;;13.30
64960;BMP180;51487;52.266;10.542;2022-09-09T03:12:02;99959.00;;;13.30
64960;BMP180;51487;52.266;10.542;2022-09-09T03:14:29;99965.00;;;13.30
64960;BMP180;51487;52.266;10.542;2022-09-09T03:16:56;99958.00;;;13.30
64960;BMP180;51487;52.266;10.542;2022-09-09T03:19:25;99960.00;;;13.30
64960;BMP180;51487;52.266;10.542;2022-09-09T03:21:51;99958.00;;;13.30
64960;BMP180;51487;52.266;10.542;2022-09-09T03:24:16;99967.00;;;13.20
64960;BMP180;51487;52.266;10.542;2022-09-09T03:26:42;99960.00;;;13.30
64960;BMP180;51487;52.266;10.542;2022-09-09T03:29:11;99964.00;;;13.30
64960;BMP180;51487;52.266;10.542;2022-09-09T03:31:38;99965.00;;;13.20
64960;BMP180;51487;52.266;10.542;2022-09-09T03:34:04;99966.00;;;13.20
64960;BMP180;51487;52.266;10.542;2022-09-09T03:36:30;99977.00;;;13.20
64960;BMP180;51487;52.266;10.542;2022-09-09T03:38:56;99971.00;;;13.30
64960;BMP180;51487;52.266;10.542;2022-09-09T03:41:23;99977.00;;;13.30
64960;BMP180;51487;52.266;10.542;2022-09-09T03:43:50;99971.00;;;13.30
64960;BMP180;51487;52.266;10.542;2022-09-09T03:46:17;99968.00;;;13.30
64960;BMP180;51487;52.266;10.542;2022-09-09T03:48:46;99968.00;;;13.40
64960;BMP180;51487;52.266;10.542;2022-09-09T03:51:12;99964.00;;;13.40
64960;BMP180;51487;52.266;10.542;2022-09-09T03:53:38;99969.00;;;13.40
64960;BMP180;51487;52.266;10.542;2022-09-09T03:56:05;99969.00;;;13.40
64960;BMP180;51487;52.266;10.542;2022-09-09T03:58:33;99959.00;;;13.50
64960;BMP180;51487;52.266;10.542;2022-09-09T04:01:11;99961.00;;;13.50
64960;BMP180;51487;52.266;10.542;2022-09-09T04:03:42;99960.00;;;13.50
64960;BMP180;51487;52.266;10.542;2022-09-09T04:06:09;99959.00;;;13.40
64960;BMP180;51487;52.266;10.542;2022-09-09T04:08:37;99954.00;;;13.50
64960;BMP180;51487;52.266;10.542;2022-09-09T04:11:03;99957.00;;;13.50
64960;BMP180;51487;52.266;10.542;2022-09-09T04:13:32;99964.00;;;13.50
64960;BMP180;51487;52.266;10.542;2022-09-09T04:16:00;99965.00;;;13.50
64960;BMP180;51487;52.266;10.542;2022-09-09T04:18:27;99956.00;;;13.60
64960;BMP180;51487;52.266;10.542;2022-09-09T04:20:56;99963.00;;;13.60
64960;BMP180;51487;52.266;10.542;2022-09-09T04:23:22;99966.00;;;13.70
64960;BMP180;51487;52.266;10.542;2022-09-09T04:25:53;99965.00;;;13.70
64960;BMP180;51487;52.266;10.542;2022-09-09T04:28:22;99970.00;;;13.80
64960;BMP180;51487;52.266;10.542;2022-09-09T04:30:49;99974.00;;;13.80
64960;BMP180;51487;52.266;10.542;2022-09-09T04:33:15;99980.00;;;13.80
64960;BMP180;51487;52.266;10.542;2022-09-09T04:35:46;99984.00;;;13.80
64960;BMP180;51487;52.266;10.542;2022-09-09T04:38:14;99973.00;;;13.80
64960;BMP180;51487;52.266;10.542;2022-09-09T04:40:47;99976.00;;;13.80
64960;BMP180;51487;52.266;10.542;2022-09-09T04:43:12;99972.00;;;13.80
64960;BMP180;51487;52.266;10.542;2022-09-09T04:45:40;99972.00;;;13.80
64960;BMP180;51487;52.266;10.542;2022-09-09T04:48:06;99977.00;;;13.90
64960;BMP180;51487;52.266;10.542;2022-09-09T04:50:33;99977.00;;;13.90
64960;BMP180;51487;52.266;10.542;2022-09-09T04:53:03;99988.00;;;13.90
64960;BMP180;51487;52.266;10.542;2022-09-09T04:55:30;99978.00;;;13.90
64960;BMP180;51487;52.266;10.542;2022-09-09T04:57:56;99988.00;;;14.00
64960;BMP180;51487;52.266;10.542;2022-09-09T05:00:25;99990.00;;;14.00
64960;BMP180;51487;52.266;10.542;2022-09-09T05:02:50;99991.00;;;14.10
64960;BMP180;51487;52.266;10.542;2022-09-09T05:05:16;99992.00;;;14.20
64960;BMP180;51487;52.266;10.542;2022-09-09T05:07:42;99984.00;;;14.20
64960;BMP180;51487;52.266;10.542;2022-09-09T05:10:08;99987.00;;;14.20
64960;BMP180;51487;52.266;10.542;2022-09-09T05:12:35;99989.00;;;14.30
64960;BMP180;51487;52.266;10.542;2022-09-09T05:15:01;99987.00;;;14.30
64960;BMP180;51487;52.266;10.542;2022-09-09T05:17:26;99992.00;;;14.40
64960;BMP180;51487;52.266;10.542;2022-09-09T05:19:52;99992.00;;;14.40
64960;BMP180;51487;52.266;10.542;2022-09-09T05:22:21;99985.00;;;14.50
64960;BMP180;51487;52.266;10.542;2022-09-09T05:24:48;99982.00;;;14.50
64960;BMP180;51487;52.266;10.542;2022-09-09T05:27:17;99981.00;;;14.50
64960;BMP180;51487;52.266;10.542;2022-09-09T05:29:45;99980.00;;;14.60
64960;BMP180;51487;52.266;10.542;2022-09-09T05:32:11;99983.00;;;14.50
64960;BMP180;51487;52.266;10.542;2022-09-09T05:34:38;99985.00;;;14.50
64960;BMP180;51487;52.266;10.542;2022-09-09T05:37:04;99992.00;;;14.60
64960;BMP180;51487;52.266;10.542;2022-09-09T05:39:31;99989.00;;;14.70
64960;BMP180;51487;52.266;10.542;2022-09-09T05:41:58;99994.00;;;14.80
64960;BMP180;51487;52.266;10.542;2022-09-09T05:44:23;99997.00;;;14.70
64960;BMP180;51487;52.266;10.542;2022-09-09T05:46:52;99997.00;;;14.80
64960;BMP180;51487;52.266;10.542;2022-09-09T05:49:19;99996.00;;;14.80
64960;BMP180;51487;52.266;10.542;2022-09-09T05:51:45;100003.00;;;14.80
64960;BMP180;51487;52.266;10.542;2022-09-09T05:54:12;100002.00;;;14.90
64960;BMP180;51487;52.266;10.542;2022-09-09T05:56:40;100006.00;;;14.90
64960;BMP180;51487;52.266;10.542;2022-09-09T05:59:06;100004.00;;;15.10
64960;BMP180;51487;52.266;10.542;2022-09-09T06:01:34;100006.00;;;15.00
64960;BMP180;51487;52.266;10.542;2022-09-09T06:04:01;100013.00;;;15.00
64960;BMP180;51487;52.266;10.542;2022-09-09T06:06:31;100001.00;;;15.00
64960;BMP180;51487;52.266;10.542;2022-09-09T06:09:03;100002.00;;;15.00
64960;BMP180;51487;52.266;10.542;2022-09-09T06:11:32;100006.00;;;15.00
64960;BMP180;51487;52.266;10.542;2022-09-09T06:13:59;100010.00;;;15.10
64960;BMP180;51487;52.266;10.542;2022-09-09T06:16:26;100008.00;;;15.20
64960;BMP180;51487;52.266;10.542;2022-09-09T06:18:54;100011.00;;;15.20
64960;BMP180;51487;52.266;10.542;2022-09-09T06:23:52;100012.00;;;15.40
64960;BMP180;51487;52.266;10.542;2022-09-09T06:26:21;100012.00;;;15.50
64960;BMP180;51487;52.266;10.542;2022-09-09T06:28:52;100018.00;;;15.50
64960;BMP180;51487;52.266;10.542;2022-09-09T06:31:21;100011.00;;;15.50
64960;BMP180;51487;52.266;10.542;2022-09-09T06:33:50;100013.00;;;15.60
64960;BMP180;51487;52.266;10.542;2022-09-09T06:36:19;100015.00;;;15.60
64960;BMP180;51487;52.266;10.542;2022-09-09T06:38:46;100019.00;;;15.60
64960;BMP180;51487;52.266;10.542;2022-09-09T06:41:14;100021.00;;;15.70
64960;BMP180;51487;52.266;10.542;2022-09-09T06:43:41;100013.00;;;15.70
64960;BMP180;51487;52.266;10.542;2022-09-09T06:46:15;100020.00;;;15.70
64960;BMP180;51487;52.266;10.542;2022-09-09T06:48:47;100026.00;;;15.70
64960;BMP180;51487;52.266;10.542;2022-09-09T06:51:20;100024.00;;;15.80
64960;BMP180;51487;52.266;10.542;2022-09-09T06:53:50;100022.00;;;15.80
64960;BMP180;51487;52.266;10.542;2022-09-09T06:56:18;100029.00;;;15.80
64960;BMP180;51487;52.266;10.542;2022-09-09T06:58:47;100018.00;;;15.90
64960;BMP180;51487;52.266;10.542;2022-09-09T07:01:16;100016.00;;;15.90
64960;BMP180;51487;52.266;10.542;2022-09-09T07:03:47;100010.00;;;16.00
64960;BMP180;51487;52.266;10.542;2022-09-09T07:06:23;100016.00;;;15.90
64960;BMP180;51487;52.266;10.542;2022-09-09T07:09:01;100012.00;;;16.00
64960;BMP180;51487;52.266;10.542;2022-09-09T07:11:31;100010.00;;;15.90
64960;BMP180;51487;52.266;10.542;2022-09-09T07:14:07;100008.00;;;15.90
64960;BMP180;51487;52.266;10.542;2022-09-09T07:16:34;100016.00;;;15.90
64960;BMP180;51487;52.266;10.542;2022-09-09T07:19:03;100007.00;;;16.00
64960;BMP180;51487;52.266;10.542;2022-09-09T07:21:30;100015.00;;;16.00
64960;BMP180;51487;52.266;10.542;2022-09-09T07:23:57;100007.00;;;16.00
64960;BMP180;51487;52.266;10.542;2022-09-09T07:26:25;100005.00;;;16.00
64960;BMP180;51487;52.266;10.542;2022-09-09T07:28:53;100006.00;;;16.10
64960;BMP180;51487;52.266;10.542;2022-09-09T07:31:24;100007.00;;;16.10
64960;BMP180;51487;52.266;10.542;2022-09-09T07:33:52;100014.00;;;16.20
64960;BMP180;51487;52.266;10.542;2022-09-09T07:36:19;100011.00;;;16.30
64960;BMP180;51487;52.266;10.542;2022-09-09T07:38:57;100010.00;;;16.50
64960;BMP180;51487;52.266;10.542;2022-09-09T07:41:33;100022.00;;;16.60
64960;BMP180;51487;52.266;10.542;2022-09-09T07:44:16;100020.00;;;16.70
64960;BMP180;51487;52.266;10.542;2022-09-09T07:46:43;100021.00;;;16.70
64960;BMP180;51487;52.266;10.542;2022-09-09T07:49:11;100024.00;;;16.70
64960;BMP180;51487;52.266;10.542;2022-09-09T07:51:39;100019.00;;;16.80
64960;BMP180;51487;52.266;10.542;2022-09-09T07:54:11;100021.00;;;16.90
64960;BMP180;51487;52.266;10.542;2022-09-09T07:56:39;100023.00;;;17.00
64960;BMP180;51487;52.266;10.542;2022-09-09T07:59:05;100025.00;;;17.00
64960;BMP180;51487;52.266;10.542;2022-09-09T08:01:37;100018.00;;;17.00
64960;BMP180;51487;52.266;10.542;2022-09-09T08:04:07;100013.00;;;17.10
64960;BMP180;51487;52.266;10.542;2022-09-09T08:06:37;100018.00;;;17.20
64960;BMP180;51487;52.266;10.542;2022-09-09T08:09:05;100027.00;;;17.30
64960;BMP180;51487;52.266;10.542;2022-09-09T08:11:33;100019.00;;;17.40
64960;BMP180;51487;52.266;10.542;2022-09-09T08:13:59;100024.00;;;17.50
64960;BMP180;51487;52.266;10.542;2022-09-09T08:16:27;100028.00;;;17.50
64960;BMP180;51487;52.266;10.542;2022-09-09T08:18:56;100032.00;;;17.60
64960;BMP180;51487;52.266;10.542;2022-09-09T08:21:25;100033.00;;;17.70
64960;BMP180;51487;52.266;10.542;2022-09-09T08:23:55;100037.00;;;17.80
64960;BMP180;51487;52.266;10.542;2022-09-09T08:26:33;100045.00;;;18.00
64960;BMP180;51487;52.266;10.542;2022-09-09T08:29:01;100043.00;;;18.10
64960;BMP180;51487;52.266;10.542;2022-09-09T08:31:30;100045.00;;;18.00
64960;BMP180;51487;52.266;10.542;2022-09-09T08:33:59;100040.00;;;18.10
64960;BMP180;51487;52.266;10.542;2022-09-09T08:36:27;100050.00;;;18.20
64960;BMP180;51487;52.266;10.542;2022-09-09T08:38:55;100053.00;;;18.20
64960;BMP180;51487;52.266;10.542;2022-09-09T08:53:19;100063.00;;;18.90
64960;BMP180;51487;52.266;10.542;2022-09-09T08:55:52;100057.00;;;18.70
64960;BMP180;51487;52.266;10.542;2022-09-09T08:58:27;100060.00;;;18.70
64960;BMP180;51487;52.266;10.542;2022-09-09T09:03:53;100076.00;;;18.60
64960;BMP180;51487;52.266;10.542;2022-09-09T09:09:04;100062.00;;;18.40
64960;BMP180;51487;52.266;10.542;2022-09-09T09:11:37;100059.00;;;18.40
64960;BMP180;51487;52.266;10.542;2022-09-09T09:14:15;100060.00;;;18.40
64960;BMP180;51487;52.266;10.542;2022-09-09T09:17:00;100059.00;;;18.40
64960;BMP180;51487;52.266;10.542;2022-09-09T09:19:29;100055.00;;;18.60
64960;BMP180;51487;52.266;10.542;2022-09-09T09:24:55;100055.00;;;18.80
64960;BMP180;51487;52.266;10.542;2022-09-09T09:28:30;100060.00;;;19.00
64960;BMP180;51487;52.266;10.542;2022-09-09T09:30:57;100056.00;;;19.00
64960;BMP180;51487;52.266;10.542;2022-09-09T09:36:15;100067.00;;;19.20
64960;BMP180;51487;52.266;10.542;2022-09-09T09:39:01;100059.00;;;19.40
64960;BMP180;51487;52.266;10.542;2022-09-09T09:44:22;100064.00;;;19.70
64960;BMP180;51487;52.266;10.542;2022-09-09T09:46:51;100065.00;;;19.50
64960;BMP180;51487;52.266;10.542;2022-09-09T09:49:17;100063.00;;;19.40
64960;BMP180;51487;52.266;10.542;2022-09-09T09:51:43;100062.00;;;19.30
64960;BMP180;51487;52.266;10.542;2022-09-09T09:54:13;100064.00;;;19.30
64960;BMP180;51487;52.266;10.542;2022-09-09T09:56:45;100077.00;;;19.10
64960;BMP180;51487;52.266;10.542;2022-09-09T09:59:35;100081.00;;;19.00
64960;BMP180;51487;52.266;10.542;2022-09-09T10:02:15;100067.00;;;18.90
64960;BMP180;51487;52.266;10.542;2022-09-09T10:04:43;100067.00;;;18.80
64960;BMP180;51487;52.266;10.542;2022-09-09T10:07:21;100066.00;;;18.80
64960;BMP180;51487;52.266;10.542;2022-09-09T10:09:55;100060.00;;;18.90
64960;BMP180;51487;52.266;10.542;2022-09-09T10:18:12;100048.00;;;18.90
64960;BMP180;51487;52.266;10.542;2022-09-09T10:26:25;100045.00;;;19.00
64960;BMP180;51487;52.266;10.542;2022-09-09T10:32:36;100041.00;;;19.30
64960;BMP180;51487;52.266;10.542;2022-09-09T10:38:20;100034.00;;;19.50
64960;BMP180;51487;52.266;10.542;2022-09-09T10:52:32;100037.00;;;19.40
64960;BMP180;51487;52.266;10.542;2022-09-09T10:55:18;100030.00;;;19.40
64960;BMP180;51487;52.266;10.542;2022-09-09T10:57:48;100036.00;;;19.40
64960;BMP180;51487;52.266;10.542;2022-09-09T11:00:34;100021.00;;;19.40
64960;BMP180;51487;52.266;10.542;2022-09-09T11:03:15;100019.00;;;19.30
64960;BMP180;51487;52.266;10.542;2022-09-09T11:05:53;100019.00;;;19.40
64960;BMP180;51487;52.266;10.542;2022-09-09T11:08:27;100018.00;;;19.40
64960;BMP180;51487;52.266;10.542;2022-09-09T11:27:57;100007.00;;;19.50
64960;BMP180;51487;52.266;10.542;2022-09-09T11:39:37;100029.00;;;19.60
64960;BMP180;51487;52.266;10.542;2022-09-09T11:42:29;100036.00;;;19.90
64960;BMP180;51487;52.266;10.542;2022-09-09T11:44:55;100033.00;;;20.10
64960;BMP180;51487;52.266;10.542;2022-09-09T11:47:30;100034.00;;;20.20
64960;BMP180;51487;52.266;10.542;2022-09-09T11:52:42;100039.00;;;20.00
64960;BMP180;51487;52.266;10.542;2022-09-09T11:57:45;100037.00;;;19.90
64960;BMP180;51487;52.266;10.542;2022-09-09T12:02:58;100036.00;;;19.80
64960;BMP180;51487;52.266;10.542;2022-09-09T12:05:36;100034.00;;;19.90
64960;BMP180;51487;52.266;10.542;2022-09-09T12:08:06;100023.00;;;20.00
64960;BMP180;51487;52.266;10.542;2022-09-09T12:10:39;100007.00;;;20.20
64960;BMP180;51487;52.266;10.542;2022-09-09T12:13:20;99998.00;;;20.40
64960;BMP180;51487;52.266;10.542;2022-09-09T12:15:52;99996.00;;;20.60
64960;BMP180;51487;52.266;10.542;2022-09-09T12:18:39;99988.00;;;20.60
64960;BMP180;51487;52.266;10.542;2022-09-09T12:21:21;99991.00;;;20.60
64960;BMP180;51487;52.266;10.542;2022-09-09T12:24:09;99990.00;;;20.80
64960;BMP180;51487;52.266;10.542;2022-09-09T12:26:41;99997.00;;;20.90
64960;BMP180;51487;52.266;10.542;2022-09-09T12:29:25;100013.00;;;21.10
64960;BMP180;51487;52.266;10.542;2022-09-09T12:32:10;100014.00;;;21.10
64960;BMP180;51487;52.266;10.542;2022-09-09T12:37:33;99999.00;;;21.20
64960;BMP180;51487;52.266;10.542;2022-09-09T12:40:06;100001.00;;;21.30
64960;BMP180;51487;52.266;10.542;2022-09-09T12:42:54;100000.00;;;21.40
64960;BMP180;51487;52.266;10.542;2022-09-09T12:45:23;100005.00;;;21.40
64960;BMP180;51487;52.266;10.542;2022-09-09T12:47:57;99998.00;;;21.50
64960;BMP180;51487;52.266;10.542;2022-09-09T12:50:32;100006.00;;;21.70
64960;BMP180;51487;52.266;10.542;2022-09-09T12:53:15;99997.00;;;21.90
64960;BMP180;51487;52.266;10.542;2022-09-09T12:55:51;99993.00;;;22.10
64960;BMP180;51487;52.266;10.542;2022-09-09T12:58:20;99983.00;;;22.10
64960;BMP180;51487;52.266;10.542;2022-09-09T13:00:54;99989.00;;;22.20
64960;BMP180;51487;52.266;10.542;2022-09-09T13:03:23;100001.00;;;22.20
64960;BMP180;51487;52.266;10.542;2022-09-09T13:05:50;99994.00;;;22.40
64960;BMP180;51487;52.266;10.542;2022-09-09T13:08:18;99985.00;;;22.30
64960;BMP180;51487;52.266;10.542;2022-09-09T13:11:03;100006.00;;;22.10
64960;BMP180;51487;52.266;10.542;2022-09-09T13:13:40;100021.00;;;21.70
64960;BMP180;51487;52.266;10.542;2022-09-09T13:16:36;100021.00;;;21.20
64960;BMP180;51487;52.266;10.542;2022-09-09T13:19:07;100025.00;;;20.70
64960;BMP180;51487;52.266;10.542;2022-09-09T13:21:37;100011.00;;;20.30
64960;BMP180;51487;52.266;10.542;2022-09-09T13:24:05;100016.00;;;20.30
64960;BMP180;51487;52.266;10.542;2022-09-09T13:26:54;100011.00;;;20.30
64960;BMP180;51487;52.266;10.542;2022-09-09T13:29:25;100009.00;;;20.10
64960;BMP180;51487;52.266;10.542;2022-09-09T13:31:53;99999.00;;;20.20
64960;BMP180;51487;52.266;10.542;2022-09-09T13:34:33;99987.00;;;20.20
64960;BMP180;51487;52.266;10.542;2022-09-09T13:37:05;99984.00;;;20.40
64960;BMP180;51487;52.266;10.542;2022-09-09T13:39:36;99996.00;;;20.40
64960;BMP180;51487;52.266;10.542;2022-09-09T13:42:03;99993.00;;;20.20
64960;BMP180;51487;52.266;10.542;2022-09-09T13:44:40;99993.00;;;20.10
64960;BMP180;51487;52.266;10.542;2022-09-09T13:49:45;99998.00;;;20.10
64960;BMP180;51487;52.266;10.542;2022-09-09T13:52:12;100008.00;;;20.10
64960;BMP180;51487;52.266;10.542;2022-09-09T13:54:40;100004.00;;;20.10
64960;BMP180;51487;52.266;10.542;2022-09-09T13:57:14;99997.00;;;20.30
64960;BMP180;51487;52.266;10.542;2022-09-09T13:59:43;99989.00;;;20.30
64960;BMP180;51487;52.266;10.542;2022-09-09T14:02:10;99999.00;;;20.40
64960;BMP180;51487;52.266;10.542;2022-09-09T14:04:35;99990.00;;;20.20
64960;BMP180;51487;52.266;10.542;2022-09-09T14:07:01;99994.00;;;20.20
64960;BMP180;51487;52.266;10.542;2022-09-09T14:09:28;100009.00;;;20.40
64960;BMP180;51487;52.266;10.542;2022-09-09T14:11:54;99991.00;;;20.30
64960;BMP180;51487;52.266;10.542;2022-09-09T14:14:20;99995.00;;;20.30
64960;BMP180;51487;52.266;10.542;2022-09-09T14:16:46;100004.00;;;20.20
64960;BMP180;51487;52.266;10.542;2022-09-09T14:19:12;100001.00;;;20.20
64960;BMP180;51487;52.266;10.542;2022-09-09T14:21:38;100008.00;;;20.00
64960;BMP180;51487;52.266;10.542;2022-09-09T14:24:04;100006.00;;;19.90
64960;BMP180;51487;52.266;10.542;2022-09-09T14:26:30;100009.00;;;20.00
64960;BMP180;51487;52.266;10.542;2022-09-09T14:28:55;100003.00;;;19.90
64960;BMP180;51487;52.266;10.542;2022-09-09T14:31:25;100011.00;;;19.90
64960;BMP180;51487;52.266;10.542;2022-09-09T14:33:51;100005.00;;;19.80
64960;BMP180;51487;52.266;10.542;2022-09-09T14:36:16;100012.00;;;19.70
64960;BMP180;51487;52.266;10.542;2022-09-09T14:38:42;100009.00;;;19.60
64960;BMP180;51487;52.266;10.542;2022-09-09T14:41:12;100012.00;;;19.50
64960;BMP180;51487;52.266;10.542;2022-09-09T14:43:44;100009.00;;;19.50
64960;BMP180;51487;52.266;10.542;2022-09-09T14:46:12;100012.00;;;19.40
64960;BMP180;51487;52.266;10.542;2022-09-09T14:48:40;100013.00;;;19.40
64960;BMP180;51487;52.266;10.542;2022-09-09T14:53:45;100004.00;;;19.40
64960;BMP180;51487;52.266;10.542;2022-09-09T14:56:13;100002.00;;;19.30
64960;BMP180;51487;52.266;10.542;2022-09-09T14:58:46;100003.00;;;19.30
64960;BMP180;51487;52.266;10.542;2022-09-09T15:01:16;100005.00;;;19.30
64960;BMP180;51487;52.266;10.542;2022-09-09T15:03:49;100012.00;;;19.20
64960;BMP180;51487;52.266;10.542;2022-09-09T15:06:16;100003.00;;;19.20
64960;BMP180;51487;52.266;10.542;2022-09-09T15:08:44;99994.00;;;19.40
64960;BMP180;51487;52.266;10.542;2022-09-09T15:11:11;99996.00;;;19.40
64960;BMP180;51487;52.266;10.542;2022-09-09T15:13:39;100003.00;;;19.40
64960;BMP180;51487;52.266;10.542;2022-09-09T15:16:11;99996.00;;;19.40
64960;BMP180;51487;52.266;10.542;2022-09-09T15:18:39;100004.00;;;19.30
64960;BMP180;51487;52.266;10.542;2022-09-09T15:21:12;100003.00;;;19.40
64960;BMP180;51487;52.266;10.542;2022-09-09T15:23:44;100006.00;;;19.50
64960;BMP180;51487;52.266;10.542;2022-09-09T15:26:11;99999.00;;;19.60
64960;BMP180;51487;52.266;10.542;2022-09-09T15:28:39;99995.00;;;19.60
64960;BMP180;51487;52.266;10.542;2022-09-09T15:31:22;99999.00;;;19.80
64960;BMP180;51487;52.266;10.542;2022-09-09T15:33:50;100001.00;;;19.80
64960;BMP180;51487;52.266;10.542;2022-09-09T15:36:20;100000.00;;;19.70
64960;BMP180;51487;52.266;10.542;2022-09-09T15:38:50;100005.00;;;19.80
64960;BMP180;51487;52.266;10.542;2022-09-09T15:41:18;100001.00;;;19.80
64960;BMP180;51487;52.266;10.542;2022-09-09T15:43:46;100007.00;;;19.90
64960;BMP180;51487;52.266;10.542;2022-09-09T15:48:49;99994.00;;;20.10
64960;BMP180;51487;52.266;10.542;2022-09-09T15:51:16;100002.00;;;20.00
64960;BMP180;51487;52.266;10.542;2022-09-09T15:53:41;99998.00;;;20.00
64960;BMP180;51487;52.266;10.542;2022-09-09T15:56:07;100003.00;;;20.10
64960;BMP180;51487;52.266;10.542;2022-09-09T15:58:35;100002.00;;;20.10
64960;BMP180;51487;52.266;10.542;2022-09-09T16:01:05;100010.00;;;20.80
64960;BMP180;51487;52.266;10.542;2022-09-09T16:03:36;100015.00;;;21.30
64960;BMP180;51487;52.266;10.542;2022-09-09T16:06:04;100011.00;;;21.70
64960;BMP180;51487;52.266;10.542;2022-09-09T16:08:34;100015.00;;;22.00
64960;BMP180;51487;52.266;10.542;2022-09-09T16:11:06;100017.00;;;21.90
64960;BMP180;51487;52.266;10.542;2022-09-09T16:13:35;100010.00;;;21.80
64960;BMP180;51487;52.266;10.542;2022-09-09T16:16:03;100017.00;;;21.70
64960;BMP180;51487;52.266;10.542;2022-09-09T16:18:36;100010.00;;;21.80
64960;BMP180;51487;52.266;10.542;2022-09-09T16:21:04;100011.00;;;21.50
64960;BMP180;51487;52.266;10.542;2022-09-09T16:23:34;100015.00;;;21.40
64960;BMP180;51487;52.266;10.542;2022-09-09T16:26:01;100016.00;;;21.50
64960;BMP180;51487;52.266;10.542;2022-09-09T16:28:27;100015.00;;;21.50
64960;BMP180;51487;52.266;10.542;2022-09-09T16:30:52;100026.00;;;21.70